Latest Coastal Weather Observations for Coolangatta

IDQ60701

Issued at 12:25 am EST Tuesday 2 September 2014 (issued every 10 minutes, with the page automatically refreshed every 10 minutes)

About coastal observations | Map of coastal stations | Coastal observations for QLD | Marine services | Other Formats
Station Details ID: 040717 Name: COOLANGATTA Lat: -28.17 Lon: 153.51 Height: 4.0 m
Data from the previous 72 hours. | See also: Recent months at Coolangatta
Date/Time
EST
Temp

°C
Wind Pressure Rain
since 9am
mm
Weather Cloud Vis
km
Sea
Height
m
Swell
Dir
 
Speed
knots
Gust
knots
hPa Trend Height
m
Period
s
Dir
02/12:00am 14.3 WNW 6 7 1015.8 - 0.0 - - 10 - - - -
 
Date/Time
EST
Temp

°C
Wind Pressure Rain
since 9am
mm
Weather Cloud Vis
km
Sea
Height
m
Swell
Dir
 
Speed
knots
Gust
knots
hPa Trend Height
m
Period
s
Dir
01/11:30pm 14.1 W 5 6 1015.8 - 0.0 - - 10 - - - -
01/11:00pm 14.6 WSW 3 4 1016.1 - 0.0 - - 10 - - - -
01/10:30pm 15.2 WSW 3 4 1016.2 - 0.0 - - 10 - - - -
01/10:00pm 15.4 WSW 4 4 1016.2 - 0.0 - - 10 - - - -
01/09:30pm 15.6 W 4 5 1016.5 - 0.0 - - 10 - - - -
01/09:00pm 16.6 W 4 5 1016.7 - 0.0 - Partly cloudy 10 - - - -
01/08:30pm 18.2 NW 4 6 1016.6 - 0.0 - - 10 - - - -
01/08:00pm 19.2 NNW 9 12 1016.6 - 0.0 - - 10 - - - -
01/07:30pm 19.6 NNW 9 14 1016.4 - 0.0 - - 10 - - - -
01/07:00pm 19.8 N 12 17 1016.2 - 0.0 - - 10 - - - -
01/06:30pm 19.9 N 13 18 1015.7 - 0.0 - - 10 - - - -
01/06:00pm 20.0 N 13 18 1015.4 - 0.0 - - 10 - - - -
01/05:30pm 20.0 N 13 17 1015.5 - 0.0 - - 10 - - - -
01/05:00pm 20.3 N 13 17 1015.4 - 0.0 - - 10 - - - -
01/04:30pm 21.0 N 13 17 1015.1 - 0.0 - - 10 - - - -
01/04:00pm 21.6 N 13 18 1014.6 - 0.0 - - 10 - - - -
01/03:30pm 21.7 N 15 18 1014.7 - 0.0 - - 10 - - - -
01/03:00pm 22.2 N 13 17 1015.0 - 0.0 - - 10 - - - -
01/02:30pm 22.2 NNE 15 18 1015.2 - 0.0 - Partly cloudy 10 - - - -
01/02:00pm 22.1 NNE 15 18 1015.4 - 0.0 - Partly cloudy 10 - - - -
01/01:30pm 22.3 N 14 17 1016.0 - 0.0 - Partly cloudy 10 - - - -
01/01:00pm 21.9 NNE 14 17 1016.1 - 0.0 - Partly cloudy 10 - - - -
01/12:30pm 22.8 NNE 14 18 1016.5 - 0.0 - Partly cloudy 10 - - - -
01/12:00pm 22.1 NNE 14 16 1017.3 - 0.0 - - 10 - - - -
01/11:30am 22.4 NNE 12 15 1017.8 - 0.0 - - 10 - - - -
01/11:00am 21.8 NNE 11 13 1018.6 - 0.0 - - 10 - - - -
01/10:30am 21.0 N 12 14 1018.9 - 0.0 - - 10 - - - -
01/10:00am 20.7 NNE 10 12 1019.2 - 0.0 - - 10 - - - -
01/09:30am 20.1 N 9 11 1019.4 - 0.0 - - 10 - - - -
01/09:00am 20.0 N 6 8 1019.7 - 0.0 - - 10 - - - -
01/08:30am 19.7 N 4 5 1019.7 - 0.0 - - 10 - - - -
01/08:00am 18.3 NE 2 4 1019.5 - 0.0 - - 10 - - - -
01/07:30am 16.2 CALM 0 1 1019.4 - 0.0 - - 10 - - - -
01/07:00am 14.6 CALM 0 0 1019.1 - 0.0 - - 10 - - - -
01/06:30am 13.6 SW 2 4 1018.9 - 0.0 - - 10 - - - -
01/06:00am 13.4 WSW 4 5 1018.7 - 0.0 - Mostly clear 10 - - - -
01/05:30am 14.0 SSW 3 4 1018.3 - 0.0 - Cloudy 10 - - - -
01/05:00am 14.4 CALM 0 0 1018.2 - 0.0 - Cloudy 10 - - - -
01/04:30am 14.4 SW 3 3 1018.2 - 0.0 - Cloudy 10 - - - -
01/04:00am 14.5 WSW 6 6 1018.3 - 0.0 - Partly cloudy 10 - - - -
01/03:30am 14.2 WSW 5 6 1018.1 - 0.0 - Partly cloudy 10 - - - -
01/03:00am 14.3 SW 5 6 1018.2 - 0.0 - Cloudy 10 - - - -
01/02:30am 13.4 WSW 4 5 1018.2 - 0.0 - Partly cloudy 10 - - - -
01/02:00am 13.9 SW 3 4 1018.3 - 0.0 - Partly cloudy 10 - - - -
01/01:30am 13.9 CALM 0 0 1018.4 - 0.0 - Cloudy 10 - - - -
01/01:00am 14.1 SW 4 5 1018.6 - 0.0 - Cloudy 10 - - - -
01/12:30am 14.1 WSW 4 6 1018.7 - 0.0 - Cloudy 10 - - - -
01/12:00am 13.6 SW 3 4 1018.8 - 0.0 - Mostly cloudy 10 - - - -
 
Date/Time
EST
Temp

°C
Wind Pressure Rain
since 9am
mm
Weather Cloud Vis
km
Sea
Height
m
Swell
Dir
 
Speed
knots
Gust
knots
hPa Trend Height
m
Period
s
Dir
31/11:30pm 13.7 SW 3 4 1019.0 - 0.0 - Partly cloudy 10 - - - -
31/11:00pm 13.9 SW 5 5 1019.0 - 0.0 - - 10 - - - -
31/10:30pm 14.3 WSW 6 7 1019.0 - 0.0 - Partly cloudy 10 - - - -
31/10:00pm 14.4 SW 5 6 1018.8 - 0.0 - - 10 - - - -
31/09:30pm 14.7 SW 5 5 1018.9 - 0.0 - - 10 - - - -
31/09:00pm 15.1 WSW 5 6 1018.8 - 0.0 - - 10 - - - -
31/08:30pm 15.8 SW 4 5 1018.9 - 0.0 - - 10 - - - -
31/08:00pm 16.4 SW 7 8 1018.7 - 0.0 - - 10 - - - -
31/07:30pm 15.4 WSW 5 6 1018.6 - 0.0 - Partly cloudy 10 - - - -
31/07:00pm 16.2 S 4 5 1018.3 - 0.0 - - 10 - - - -
31/06:30pm 16.5 SSW 5 6 1017.9 - 0.0 - - 10 - - - -
31/06:00pm 17.4 SSE 5 8 1017.6 - 0.0 - - 10 - - - -
31/05:30pm 18.3 SSE 8 12 1017.2 - 0.0 - - 10 - - - -
31/05:00pm 19.2 SE 12 16 1017.0 - 0.0 - - 10 - - - -
31/04:30pm 19.8 SSE 11 17 1016.6 - 0.0 - - 10 - - - -
31/04:00pm 20.6 SE 13 19 1016.4 - 0.0 - - 10 - - - -
31/03:30pm 21.3 SSE 12 17 1016.3 - 0.0 - - 10 - - - -
31/03:00pm 22.0 SE 15 19 1016.1 - 0.0 - - 10 - - - -
31/02:30pm 22.2 SE 15 19 1016.0 - 0.0 - - 10 - - - -
31/02:00pm 22.4 SE 16 21 1016.0 - 0.0 - - 10 - - - -
31/01:30pm 22.7 SE 15 19 1016.1 - 0.0 - - 10 - - - -
31/01:00pm 22.6 ESE 15 19 1016.3 - 0.0 - - 10 - - - -
31/12:30pm 23.3 ESE 14 19 1016.8 - 0.0 - Partly cloudy 10 - - - -
31/12:00pm 23.2 SSW 6 9 1017.2 - 0.0 - Mostly clear 10 - - - -
31/11:30am 22.8 SSW 7 11 1017.7 - 0.0 - - 10 - - - -
31/11:00am 22.3 SSE 8 13 1018.2 - 0.0 - - 10 - - - -
31/10:30am 22.3 SSW 8 11 1018.7 - 0.0 - - 10 - - - -
31/10:00am 21.3 SSW 10 16 1018.9 - 0.0 - - 10 - - - -
31/09:30am 21.0 SW 9 14 1018.9 - 0.0 - - 10 - - - -
31/09:00am 20.1 SSW 11 17 1019.1 - 0.0 - - 10 - - - -
31/08:30am 19.6 SSW 9 11 1019.2 - 0.0 - - 10 - - - -
31/08:00am 18.6 S 8 12 1019.2 - 0.0 - - 10 - - - -
31/07:30am 14.1 WSW 3 4 1019.1 - 0.0 - - 10 - - - -
31/07:00am 12.5 WSW 6 6 1019.1 - 0.0 - - 10 - - - -
31/06:30am 10.2 W 1 4 1018.9 - 0.0 - - 10 - - - -
31/06:00am 10.4 SW 3 5 1018.8 - 0.0 - - 10 - - - -
31/05:30am 10.0 SW 4 5 1018.3 - 0.0 - - 10 - - - -
31/05:01am 9.4 CALM 0 0 1018.2 - 0.0 - - 10 - - - -
31/05:00am 9.8 CALM 0 0 1018.2 - 0.0 - - 10 - - - -
31/04:42am 10.1 CALM 0 0 1018.3 - 0.0 - - 6 - - - -
31/04:33am 10.4 CALM 0 0 1018.3 - 0.0 - - 10 - - - -
31/04:30am 10.4 CALM 0 0 1018.2 - 0.0 - - 10 - - - -
31/04:00am 11.0 CALM 0 0 1018.0 - 0.0 - - 4 - - - -
31/03:30am 10.4 WSW 2 4 1017.9 - 0.0 - - 2 - - - -
31/03:27am 10.2 WSW 2 4 1017.8 - 0.0 - - 4 - - - -
31/03:00am 10.9 WSW 2 4 1017.8 - 0.0 - - 10 - - - -
31/02:30am 10.6 W 5 6 1017.9 - 0.0 - - 10 - - - -
31/02:14am 11.1 WSW 4 5 1018.0 - 0.0 - - 10 - - - -
31/02:00am 10.5 SSW 1 4 1018.0 - 0.0 - - 4 - - - -
31/01:30am 11.3 SSW 3 4 1018.1 - 0.0 - - 6 - - - -
31/01:26am 11.3 SSW 3 4 1018.2 - 0.0 - - 6 - - - -
31/01:00am 12.1 SW 1 3 1018.4 - 0.0 - - 10 - - - -
31/12:30am 12.1 CALM 0 2 1018.6 - 0.0 - - 10 - - - -
31/12:20am 12.1 WSW 3 5 1018.7 - 0.0 - - 10 - - - -
31/12:01am 11.9 CALM 0 0 1018.7 - 0.0 - - 5 - - - -
31/12:00am 11.8 CALM 0 0 1018.7 - 0.0 - - 9 - - - -
 
Date/Time
EST
Temp

°C
Wind Pressure Rain
since 9am
mm
Weather Cloud Vis
km
Sea
Height
m
Swell
Dir
 
Speed
knots
Gust
knots
hPa Trend Height
m
Period
s
Dir
30/11:30pm 12.9 SW 3 4 1018.7 - 0.0 - - 10 - - - -
30/11:00pm 13.6 WSW 6 7 1018.7 - 0.0 - - 10 - - - -
30/10:30pm 13.9 SW 6 6 1018.6 - 0.0 - - 10 - - - -
30/10:00pm 14.2 W 6 6 1018.5 - 0.0 - - 10 - - - -
30/09:30pm 13.6 WSW 6 6 1018.4 - 0.0 - - 10 - - - -
30/09:00pm 14.0 SW 5 6 1018.3 - 0.0 - - 10 - - - -
30/08:30pm 13.9 SW 3 4 1018.4 - 0.0 - - 10 - - - -
30/08:00pm 13.9 SSW 2 4 1018.2 - 0.0 - - 10 - - - -
30/07:30pm 14.6 WSW 3 4 1018.1 - 0.0 - - 10 - - - -
30/07:00pm 16.6 S 4 6 1018.0 - 0.0 - - 10 - - - -
30/06:30pm 17.4 S 8 11 1017.7 - 0.0 - - 10 - - - -
30/06:00pm 17.4 S 7 10 1017.4 - 0.0 - - 10 - - - -
30/05:30pm 18.3 SSE 7 11 1017.1 - 0.0 - - 10 - - - -
30/05:00pm 19.4 SSE 11 13 1017.0 - 0.0 - Partly cloudy 10 - - - -
30/04:30pm 20.4 SE 12 15 1016.9 - 0.0 - Partly cloudy 10 - - - -
30/04:00pm 21.1 SE 11 14 1016.7 - 0.0 - Partly cloudy 10 - - - -
30/03:30pm 22.5 SSW 10 15 1016.6 - 0.0 - Partly cloudy 10 - - - -
30/03:00pm 22.2 S 11 15 1016.5 - 0.0 - Mostly clear 10 - - - -
30/02:30pm 21.1 S 10 15 1016.8 - 0.0 - Partly cloudy 10 - - - -
30/02:00pm 21.8 S 11 16 1017.0 - 0.0 - Partly cloudy 10 - - - -
30/01:30pm 21.4 S 13 17 1017.1 - 0.0 - Partly cloudy 10 - - - -
30/01:00pm 22.0 S 11 15 1017.4 - 0.0 - Partly cloudy 10 - - - -
30/12:30pm 21.9 S 8 14 1017.8 - 0.0 - Partly cloudy 10 - - - -
30/12:00pm 21.1 S 8 11 1018.2 - 0.0 - Partly cloudy 10 - - - -
30/11:30am 21.5 SSW 8 13 1018.5 - 0.0 - Partly cloudy 10 - - - -
30/11:00am 21.8 SSW 10 16 1019.0 - 0.0 - Partly cloudy 10 - - - -
30/10:30am 20.9 S 9 13 1019.4 - 0.0 - Partly cloudy 10 - - - -
30/10:00am 20.5 SSW 9 14 1019.6 - 0.0 - - 10 - - - -
30/09:30am 20.8 SSW 9 14 1019.8 - 0.0 - Partly cloudy 10 - - - -
30/09:00am 19.0 W 5 7 1019.8 - 0.0 - - 10 - - - -
30/08:30am 17.2 N 5 5 1020.0 - 0.0 - Partly cloudy 10 - - - -
30/08:00am 14.3 SE 1 3 1020.1 - 0.0 - Cloudy 10 - - - -
30/07:30am 13.1 WNW 3 4 1019.9 - 0.0 - Partly cloudy 10 - - - -
30/07:00am 10.7 W 2 5 1019.8 - 0.0 - - 10 - - - -
30/06:30am 9.2 SW 3 5 1019.4 - 0.0 - - 10 - - - -
30/06:00am 8.7 WSW 3 6 1019.1 - 0.0 - Partly cloudy 10 - - - -
30/05:30am 9.3 WSW 6 7 1018.9 - 0.0 - Partly cloudy 10 - - - -
30/05:00am 8.0 WSW 6 8 1018.6 - 0.0 - - 10 - - - -
30/04:30am 8.6 WSW 7 8 1018.8 - 0.0 - - 10 - - - -
30/04:00am 8.3 WSW 7 7 1018.9 - 0.0 - - 10 - - - -
30/03:30am 7.5 CALM 0 0 1019.0 - 0.0 - - 10 - - - -
30/03:00am 7.7 CALM 0 0 1019.1 - 0.0 - - 10 - - - -
30/02:30am 8.0 CALM 0 0 1019.1 - 0.0 - - 10 - - - -
30/02:00am 8.6 SW 3 4 1019.1 - 0.0 - - 10 - - - -
30/01:30am 8.7 WSW 3 4 1019.3 - 0.0 - - 10 - - - -
30/01:00am 9.1 CALM 0 0 1019.6 - 0.0 - - 10 - - - -
30/12:30am 9.3 CALM 0 0 1019.7 - 0.0 - - 10 - - - -

Other Formats:

Comma delimited format used in spreadsheet applications
http://www.bom.gov.au/fwo/IDQ60701/IDQ60701.94592.axf

JavaScript Object Notation format (JSON) in row-major order
http://www.bom.gov.au/fwo/IDQ60701/IDQ60701.94592.json